MSC Mara — V7NF9 — position and weather

sailwx.info

Track history (hours):
 
Tides and Currents Weather Stations Pressure Air Temp Water Temp Dewpoint Dewpoint Depression Visibility Wind Speed Wind Dir Waves Ship Positions

MSC Mara

Last reported at 2014-Oct-25 11:31 UTC. Time now 2014-Oct-25 22:05 UTC.
Position S 34°46' E 138°29'.

Length 294 m; draft 8.8 m.

Type: Ship (hazmat cat C). MMSI: 538002955.

Date/timePositionNaut miles runAvg speedWind from/ knotsBaromVisibWave heightAir tempDewpointWater temp
2014-Oct-25 11:31S 34°46' E 138°29'0 0.0
2014-Oct-25 10:22S 34°46' E 138°29'0 0.0
2014-Oct-25 09:31S 34°46' E 138°29'285 6.6
2014-Oct-23 14:30S 38°43' E 141°48'1819.5
2014-Oct-23 13:33S 38°45' E 142°11'133 3.2
2014-Oct-21 20:20S 38°46' E 145°02'1418.0
2014-Oct-21 19:33S 38°52' E 145°18'1818.0
2014-Oct-21 18:33S 38°60' E 145°39'1818.3
2014-Oct-21 17:33S 39°08' E 145°60'1817.9
2014-Oct-21 16:33S 39°11' E 146°23'1818.0
2014-Oct-21 15:33S 39°05' E 146°45'1818.2
2014-Oct-21 14:33S 38°59' E 147°07'1818.5
2014-Oct-21 13:33S 38°54' E 147°29'1918.6
2014-Oct-21 12:33S 38°48' E 147°52'1918.8
2014-Oct-21 11:33S 38°42' E 148°15'2018.8
2014-Oct-21 10:31S 38°30' E 148°35'1919.7
2014-Oct-21 09:34S 38°19' E 148°55'2120.7
2014-Oct-21 08:33S 38°07' E 149°16'2120.9
2014-Oct-21 07:34S 37°55' E 149°37'2221.5
2014-Oct-21 06:33S 37°41' E 149°59'2221.6
2014-Oct-21 05:33S 37°23' E 150°14'  
2014-Oct-16 23:15S 37°33' E 150°16'1013.2
2014-Oct-16 22:31S 37°40' E 150°08'1918.6
2014-Oct-16 21:29S 37°51' E 149°48'1515.0
2014-Oct-16 20:28S 38°02' E 149°33'4013.7
2014-Oct-16 17:33S 38°25' E 148°52'7513.7
2014-Oct-16 12:06S 39°01' E 147°28'813.8
2014-Oct-16 11:33S 39°03' E 147°19'1413.8
2014-Oct-16 10:33S 39°08' E 147°03'1414.1
2014-Oct-16 09:33S 39°13' E 146°46'1413.6
2014-Oct-16 08:33S 39°16' E 146°28'1413.6
2014-Oct-16 07:33S 39°17' E 146°11'1313.3
2014-Oct-16 06:33S 39°17' E 145°54'1313.3
2014-Oct-16 05:33S 39°17' E 145°37'  
Track history (hours):
 
Tides and Currents Weather Stations Pressure Air Temp Water Temp Dewpoint Dewpoint Depression Visibility Wind Speed Wind Dir Waves Ship Positions

MSC Mara

Last reported at 2014-Oct-25 11:31 UTC. Time now 2014-Oct-25 22:05 UTC.
Position S 34°46' E 138°29'.

Length 294 m; draft 8.8 m.

Type: Ship (hazmat cat C). MMSI: 538002955.

Date/timePositionNaut miles runAvg speedWind from/ knotsBaromVisibWave heightAir tempDewpointWater temp
2014-Oct-25 11:31S 34°46' E 138°29'0 0.0
2014-Oct-25 10:22S 34°46' E 138°29'0 0.0
2014-Oct-25 09:31S 34°46' E 138°29'285 6.6
2014-Oct-23 14:30S 38°43' E 141°48'1819.5
2014-Oct-23 13:33S 38°45' E 142°11'133 3.2
2014-Oct-21 20:20S 38°46' E 145°02'1418.0
2014-Oct-21 19:33S 38°52' E 145°18'1818.0
2014-Oct-21 18:33S 38°60' E 145°39'1818.3
2014-Oct-21 17:33S 39°08' E 145°60'1817.9
2014-Oct-21 16:33S 39°11' E 146°23'1818.0
2014-Oct-21 15:33S 39°05' E 146°45'1818.2
2014-Oct-21 14:33S 38°59' E 147°07'1818.5
2014-Oct-21 13:33S 38°54' E 147°29'1918.6
2014-Oct-21 12:33S 38°48' E 147°52'1918.8
2014-Oct-21 11:33S 38°42' E 148°15'2018.8
2014-Oct-21 10:31S 38°30' E 148°35'1919.7
2014-Oct-21 09:34S 38°19' E 148°55'2120.7
2014-Oct-21 08:33S 38°07' E 149°16'2120.9
2014-Oct-21 07:34S 37°55' E 149°37'2221.5
2014-Oct-21 06:33S 37°41' E 149°59'2221.6
2014-Oct-21 05:33S 37°23' E 150°14'  
2014-Oct-16 23:15S 37°33' E 150°16'1013.2
2014-Oct-16 22:31S 37°40' E 150°08'1918.6
2014-Oct-16 21:29S 37°51' E 149°48'1515.0
2014-Oct-16 20:28S 38°02' E 149°33'4013.7
2014-Oct-16 17:33S 38°25' E 148°52'7513.7
2014-Oct-16 12:06S 39°01' E 147°28'813.8
2014-Oct-16 11:33S 39°03' E 147°19'1413.8
2014-Oct-16 10:33S 39°08' E 147°03'1414.1
2014-Oct-16 09:33S 39°13' E 146°46'1413.6
2014-Oct-16 08:33S 39°16' E 146°28'1413.6
2014-Oct-16 07:33S 39°17' E 146°11'1313.3
2014-Oct-16 06:33S 39°17' E 145°54'1313.3
2014-Oct-16 05:33S 39°17' E 145°37'  

Dump ship's entire track history